Bakerville, South Dakota
Current Conditions -  °F | °C
As of 10:53 AM on Sunday 21 Dec 2014 (Local Time) from KCUT Reporting Station
Overcast Overcast  
Wind Chill: 29°   Ceiling: 9500
Heat Index: 37°   Visibility: 10mi
Dew Point: 26°   Wind: 13mph
Humidity: 65%   Direction: 270°W
Pressure: 29.44"   Gusts: 21mph
Location:  43.6653°N, 103.766°W
Report Text: KCUT 211753Z AUTO 27011G18KT 10SM OVC095 03/M03 A2944 RMK AO2 SLP975 T00281033 10028 21033 58020
Loading
Personal Weather Stations






























Interactive Weather Map New forecast layout! Learn more

10-Day Weather Forecast

Advertisements
Track Severe Weather on mobile